Terminal Aerodrome Forecast
Issued by NWS Paducah, KY

Home | Current Version | Previous Version | Text Only | Print | Product List | Glossary On
Versions: 1 2 3 4 5 6 7 8 9 10 11 12 13 14 15 16 17 18 19 20
000
FTUS43 KPAH 291734
TAFPAH
TAF
KPAH 291734Z 2918/3018 08006KT P6SM -SHRA VCTS SCT040CB OVC090
      TEMPO 2919/2921 3SM SHRA BR BKN035
     FM292200 08007KT P6SM SCT050 BKN100
     FM300400 10008KT 6SM -SHRA BR BKN040
     FM300900 13008G18KT 5SM -SHRA BR BKN025 PROB30 3009/3015 2SM
      TSRA BR BKN012CB=

USA.gov is the U.S. government's official web portal to all federal, state and local government web resources and services.